Time;durP1;ratioP1;P1;durP2;ratioP2;P2;SDS_P1;SDS_P2;PMS_P1;PMS_P2;Temp;Humidity;BMP_temperature;BMP_pressure;BME280_temperature;BME280_humidity;BME280_pressure;Samples;Min_cycle;Max_cycle;Signal;HPM_P1;HPM_P2
2021/08/21 00:00:18;;;;;;;11.27;3.72;;;;;;;29.06;40.36;100671.78;4427136;32;20049;-69
2021/08/21 00:02:44;;;;;;;8.77;3.58;;;;;;;29.17;40.14;100672.25;4429290;32;20469;-67
2021/08/21 00:05:10;;;;;;;8.80;3.60;;;;;;;29.14;40.07;100666.84;4429264;32;21435;-68
2021/08/21 00:07:35;;;;;;;8.75;3.62;;;;;;;29.08;40.53;100675.66;4426014;32;20478;-68
2021/08/21 00:10:05;;;;;;;9.32;3.70;;;;;;;28.86;40.77;100674.13;4425805;32;20053;-68
2021/08/21 00:12:31;;;;;;;8.15;4.15;;;;;;;29.44;39.95;100672.78;4424781;32;20033;-68
2021/08/21 00:14:56;;;;;;;19.62;4.32;;;;;;;29.13;40.43;100671.84;4423758;32;20473;-68
2021/08/21 00:17:23;;;;;;;9.63;3.62;;;;;;;29.03;40.61;100674.44;4426644;32;20051;-68
2021/08/21 00:19:48;;;;;;;11.07;4.18;;;;;;;29.02;40.66;100677.91;4423340;32;20073;-68
2021/08/21 00:22:14;;;;;;;9.98;4.00;;;;;;;28.86;41.03;100685.72;4426938;32;20049;-68
2021/08/21 00:24:41;;;;;;;9.88;4.03;;;;;;;28.75;41.38;100685.25;4425787;32;20102;-68
2021/08/21 00:27:07;;;;;;;7.10;3.60;;;;;;;28.84;41.28;100682.59;4425850;32;20068;-68
2021/08/21 00:29:33;;;;;;;9.95;3.75;;;;;;;28.65;41.50;100684.97;4421173;32;20042;-68
2021/08/21 00:31:59;;;;;;;7.97;4.00;;;;;;;28.59;41.76;100681.44;4423270;32;20115;-68
2021/08/21 00:34:25;;;;;;;8.40;3.97;;;;;;;28.74;41.40;100677.87;4424673;32;20416;-68
2021/08/21 00:36:50;;;;;;;14.00;4.15;;;;;;;28.55;41.78;100681.03;4425448;32;20093;-68
2021/08/21 00:39:16;;;;;;;6.93;3.92;;;;;;;28.49;42.14;100676.72;4424806;32;20080;-68
2021/08/21 00:41:43;;;;;;;12.88;4.50;;;;;;;28.68;41.78;100675.16;4429284;32;20061;-68
2021/08/21 00:44:10;;;;;;;7.15;3.72;;;;;;;28.43;42.39;100667.34;4422627;32;20937;-68
2021/08/21 00:49:32;;;;;;;11.88;3.97;;;;;;;29.13;41.32;100671.06;3983935;32;15154493;-69
2021/08/21 00:51:59;;;;;;;9.10;4.07;;;;;;;29.13;41.32;100671.06;4434331;32;20101;-68
2021/08/21 00:54:25;;;;;;;9.50;4.30;;;;;;;28.85;41.64;100669.69;4434852;32;20087;-68
2021/08/21 00:56:51;;;;;;;7.37;4.07;;;;;;;28.62;41.96;100670.84;4438002;32;20051;-68
2021/08/21 00:59:17;;;;;;;8.60;4.12;;;;;;;28.96;41.45;100668.63;4435367;32;20034;-69
2021/08/21 01:01:44;;;;;;;9.73;4.65;;;;;;;29.03;41.27;100665.00;4436138;32;20060;-69
2021/08/21 01:04:10;;;;;;;10.18;4.53;;;;;;;28.88;41.62;100667.78;4438345;32;20664;-68
2021/08/21 01:06:36;;;;;;;9.40;4.50;;;;;;;28.62;41.96;100662.94;4438101;32;20363;-68
2021/08/21 01:09:03;;;;;;;9.20;4.20;;;;;;;28.59;42.19;100660.41;4436057;32;20069;-69
2021/08/21 01:11:30;;;;;;;10.75;4.70;;;;;;;28.76;42.00;100658.63;4437337;32;20504;-68
2021/08/21 01:13:57;;;;;;;8.77;4.65;;;;;;;28.79;41.89;100657.47;4437135;32;20499;-69
2021/08/21 01:16:24;;;;;;;10.13;4.72;;;;;;;28.80;42.06;100661.13;4436385;32;20415;-69
2021/08/21 01:18:50;;;;;;;9.52;4.87;;;;;;;28.85;41.94;100671.81;4435472;32;20485;-68
2021/08/21 01:21:17;;;;;;;10.35;5.07;;;;;;;28.65;42.23;100670.50;4435135;32;20098;-68
2021/08/21 01:23:43;;;;;;;8.43;4.40;;;;;;;28.51;42.80;100662.47;4434560;32;20038;-68
2021/08/21 01:26:10;;;;;;;11.40;4.75;;;;;;;28.66;42.29;100663.34;4431291;32;20045;-68
2021/08/21 01:28:36;;;;;;;10.35;4.97;;;;;;;28.69;42.46;100659.31;4433782;32;20105;-68
2021/08/21 01:31:04;;;;;;;13.13;5.25;;;;;;;28.58;42.56;100670.41;4434192;32;20052;-68
2021/08/21 01:33:33;;;;;;;7.40;4.30;;;;;;;28.72;42.24;100666.88;4435539;32;20029;-68
2021/08/21 01:35:59;;;;;;;8.43;5.05;;;;;;;28.87;42.17;100672.03;4430408;32;20040;-68
2021/08/21 01:38:26;;;;;;;9.95;5.22;;;;;;;28.69;42.24;100673.03;4433510;32;20065;-68
2021/08/21 01:40:53;;;;;;;11.77;5.75;;;;;;;28.69;42.27;100673.78;4432997;32;20069;-68
2021/08/21 01:43:19;;;;;;;6.37;4.40;;;;;;;28.60;42.49;100668.50;4432293;32;20034;-68
2021/08/21 01:45:45;;;;;;;7.12;4.15;;;;;;;28.65;42.44;100666.81;4435025;32;20085;-68
2021/08/21 01:48:12;;;;;;;6.65;3.75;;;;;;;28.67;42.14;100662.03;4434506;32;20359;-68
2021/08/21 01:50:39;;;;;;;8.70;4.47;;;;;;;28.83;41.89;100660.78;4436001;32;20099;-68
2021/08/21 01:53:10;;;;;;;6.40;3.60;;;;;;;28.75;41.98;100659.19;4434414;32;20075;-68
2021/08/21 01:55:36;;;;;;;7.40;3.25;;;;;;;29.00;41.54;100660.34;4436813;32;21280;-68
2021/08/21 01:58:02;;;;;;;6.28;3.40;;;;;;;29.01;41.25;100665.56;4433917;32;20454;-68
2021/08/21 02:00:28;;;;;;;6.10;2.85;;;;;;;29.00;41.32;100657.44;4425479;32;20057;-68
2021/08/21 02:02:55;;;;;;;9.25;3.15;;;;;;;28.92;41.24;100654.47;4420864;32;20395;-68
2021/08/21 02:05:22;;;;;;;4.10;2.62;;;;;;;29.11;40.88;100656.38;4426802;32;20034;-68
2021/08/21 02:07:47;;;;;;;6.35;3.00;;;;;;;28.83;41.51;100652.09;4423944;32;20144;-68
2021/08/21 02:10:15;;;;;;;7.70;2.33;;;;;;;28.79;41.47;100654.59;4421856;32;20083;-68
2021/08/21 02:12:41;;;;;;;7.68;2.60;;;;;;;28.87;41.48;100651.75;4423960;32;20437;-68
2021/08/21 02:15:09;;;;;;;4.40;1.90;;;;;;;28.89;41.04;100646.94;4423266;32;20426;-68
2021/08/21 02:17:35;;;;;;;7.87;2.03;;;;;;;28.95;41.22;100644.66;4425724;32;20111;-68
2021/08/21 02:20:02;;;;;;;7.12;2.50;;;;;;;28.81;41.37;100646.09;4423037;32;20033;-68
2021/08/21 02:22:28;;;;;;;3.58;1.80;;;;;;;28.72;41.51;100640.03;4422523;32;20064;-68
2021/08/21 02:24:55;;;;;;;3.40;1.77;;;;;;;28.79;41.45;100636.41;4424347;32;20034;-68
2021/08/21 02:27:23;;;;;;;3.62;1.67;;;;;;;28.91;41.17;100632.66;4424476;32;20368;-68
2021/08/21 02:29:49;;;;;;;2.30;1.70;;;;;;;28.98;41.07;100631.13;4423667;32;20181;-68
2021/08/21 02:32:15;;;;;;;4.30;1.87;;;;;;;28.97;41.08;100629.59;4425243;32;20097;-68
2021/08/21 02:34:41;;;;;;;3.45;1.50;;;;;;;29.00;41.14;100628.47;4422389;32;20130;-68
2021/08/21 02:37:06;;;;;;;3.80;1.80;;;;;;;28.95;41.17;100624.38;4423035;32;20053;-68
2021/08/21 02:39:32;;;;;;;4.45;1.90;;;;;;;28.95;41.23;100624.38;4423221;32;20370;-68
2021/08/21 02:41:58;;;;;;;3.45;1.33;;;;;;;29.05;40.95;100624.63;4420922;32;20517;-68
2021/08/21 02:44:24;;;;;;;1.95;1.40;;;;;;;28.99;41.00;100626.87;4425046;32;20136;-68
2021/08/21 02:46:50;;;;;;;3.15;1.70;;;;;;;28.98;41.01;100631.13;4423672;32;20408;-68
2021/08/21 02:49:17;;;;;;;3.30;1.83;;;;;;;29.04;41.03;100634.69;4422301;32;20562;-68
2021/08/21 02:51:43;;;;;;;2.17;1.40;;;;;;;29.35;40.36;100635.62;4423909;32;20050;-68
2021/08/21 02:54:08;;;;;;;3.60;1.30;;;;;;;29.08;40.76;100623.50;4423599;32;20102;-68
2021/08/21 02:56:34;;;;;;;2.83;1.30;;;;;;;28.90;41.03;100630.34;4421886;32;20442;-68
2021/08/21 02:59:00;;;;;;;1.58;1.20;;;;;;;28.87;41.18;100626.44;4425391;32;20123;-68
2021/08/21 03:01:26;;;;;;;1.60;1.08;;;;;;;28.61;41.78;100623.75;4425612;32;20069;-68
2021/08/21 03:03:52;;;;;;;3.62;1.50;;;;;;;28.63;41.62;100626.06;4424618;32;20022;-68
2021/08/21 03:06:18;;;;;;;4.60;1.58;;;;;;;28.64;41.73;100631.28;4423673;32;20478;-68
2021/08/21 03:08:43;;;;;;;3.20;1.40;;;;;;;28.64;41.68;100628.41;4422703;32;20401;-68
2021/08/21 03:11:11;;;;;;;3.60;1.60;;;;;;;28.65;41.70;100624.16;4419884;32;20052;-68
2021/08/21 03:13:39;;;;;;;2.65;1.12;;;;;;;28.68;41.67;100628.81;4425309;32;20572;-68
2021/08/21 03:16:05;;;;;;;2.33;1.17;;;;;;;28.80;41.52;100620.59;4423667;32;20077;-68
2021/08/21 03:18:32;;;;;;;1.90;1.10;;;;;;;28.47;41.73;100618.62;4424797;32;20126;-68
2021/08/21 03:20:57;;;;;;;4.10;1.35;;;;;;;28.38;41.91;100624.88;4421001;32;20116;-68
2021/08/21 03:23:23;;;;;;;2.67;1.15;;;;;;;28.43;41.64;100621.03;4424059;32;20494;-68
2021/08/21 03:25:49;;;;;;;2.15;1.08;;;;;;;28.26;42.00;100615.69;4424731;32;20164;-68
2021/08/21 03:28:15;;;;;;;2.62;1.15;;;;;;;28.24;42.19;100618.38;4423012;32;20088;-68
2021/08/21 03:30:41;;;;;;;1.52;0.95;;;;;;;28.41;41.66;100620.84;4420411;32;20034;-68
2021/08/21 03:33:08;;;;;;;2.35;1.08;;;;;;;28.21;41.99;100619.50;4422957;32;20065;-68
2021/08/21 03:35:35;;;;;;;1.92;0.93;;;;;;;28.14;42.12;100623.13;4424050;32;20017;-68
2021/08/21 03:38:01;;;;;;;2.35;1.00;;;;;;;28.11;42.29;100618.47;4420611;32;20117;-68
2021/08/21 03:40:27;;;;;;;4.07;1.48;;;;;;;28.19;42.15;100612.75;4422491;32;20115;-68
2021/08/21 03:42:53;;;;;;;2.17;1.02;;;;;;;28.58;41.48;100615.41;4424519;32;20030;-68
2021/08/21 03:45:19;;;;;;;3.65;1.33;;;;;;;28.38;41.59;100613.28;4423864;32;20136;-68
2021/08/21 03:47:47;;;;;;;3.53;1.00;;;;;;;28.38;41.64;100611.16;4421621;32;20583;-68
2021/08/21 03:50:13;;;;;;;2.15;1.10;;;;;;;28.36;41.71;100610.97;4424238;32;20045;-68
2021/08/21 03:52:39;;;;;;;1.80;0.85;;;;;;;28.22;41.63;100611.62;4424321;32;20025;-68
2021/08/21 03:55:05;;;;;;;3.75;1.20;;;;;;;28.12;41.63;100611.31;4426446;32;20412;-68
2021/08/21 03:57:31;;;;;;;1.48;0.70;;;;;;;28.05;41.71;100609.13;4421843;32;20415;-68
2021/08/21 03:59:57;;;;;;;1.95;1.10;;;;;;;28.14;41.72;100607.84;4420537;32;20053;-68
2021/08/21 04:02:22;;;;;;;1.55;0.80;;;;;;;28.32;41.57;100613.41;4422112;32;21423;-68
2021/08/21 04:04:49;;;;;;;1.50;1.00;;;;;;;28.43;41.23;100618.94;4419616;32;20395;-68
2021/08/21 04:07:16;;;;;;;3.62;1.27;;;;;;;28.40;41.18;100614.28;4424635;32;20078;-68
2021/08/21 04:09:42;;;;;;;3.12;1.33;;;;;;;28.54;41.12;100610.00;4421652;32;20034;-68
2021/08/21 04:12:08;;;;;;;4.30;1.08;;;;;;;28.26;41.64;100603.34;4422185;32;20029;-68
2021/08/21 04:14:34;;;;;;;2.25;1.12;;;;;;;28.41;41.28;100610.03;4423644;32;20096;-68
2021/08/21 04:17:04;;;;;;;1.90;0.90;;;;;;;28.34;40.98;100607.84;4423304;32;20444;-68
2021/08/21 04:19:29;;;;;;;1.55;0.95;;;;;;;28.20;41.47;100609.28;4421632;32;20120;-68
2021/08/21 04:21:55;;;;;;;3.28;0.93;;;;;;;28.15;41.63;100610.19;4421579;32;20062;-68
2021/08/21 04:24:22;;;;;;;2.28;0.88;;;;;;;28.30;41.31;100606.66;4422376;32;20065;-68
2021/08/21 04:26:48;;;;;;;2.00;1.05;;;;;;;28.52;40.73;100606.87;4421551;32;20063;-68
2021/08/21 04:29:14;;;;;;;2.72;1.02;;;;;;;28.50;40.83;100600.88;4421987;32;20125;-68
2021/08/21 04:31:40;;;;;;;2.28;1.20;;;;;;;28.45;40.87;100601.81;4425895;32;20065;-68
2021/08/21 04:34:06;;;;;;;2.65;1.05;;;;;;;28.19;41.38;100598.28;4421346;32;20399;-68
2021/08/21 04:36:32;;;;;;;3.70;1.05;;;;;;;28.35;41.16;100592.03;4419649;32;20025;-68
2021/08/21 04:38:58;;;;;;;4.93;1.37;;;;;;;28.45;40.92;100586.53;4423923;32;20104;-68
2021/08/21 04:41:24;;;;;;;1.85;1.10;;;;;;;28.40;41.13;100585.31;4420793;32;20030;-68
2021/08/21 04:43:50;;;;;;;2.10;1.23;;;;;;;28.34;41.23;100589.69;4421478;32;20034;-68
2021/08/21 04:46:16;;;;;;;2.95;1.23;;;;;;;28.34;41.20;100587.59;4422886;32;20130;-68
2021/08/21 04:48:41;;;;;;;2.42;1.10;;;;;;;28.47;40.78;100596.22;4420630;32;20072;-68
2021/08/21 04:51:07;;;;;;;5.85;1.37;;;;;;;28.51;40.79;100601.66;4424147;32;20116;-68
2021/08/21 04:53:33;;;;;;;3.10;1.20;;;;;;;28.29;40.99;100597.19;4422375;32;20041;-68
2021/08/21 04:55:58;;;;;;;2.45;1.05;;;;;;;28.70;40.42;100602.97;4422154;32;20158;-68
2021/08/21 04:58:24;;;;;;;3.35;1.00;;;;;;;28.69;40.48;100606.44;4424298;32;20071;-68
2021/08/21 05:00:50;;;;;;;3.00;1.12;;;;;;;28.68;40.51;100607.75;4418185;32;20085;-68
2021/08/21 05:03:15;;;;;;;4.25;1.02;;;;;;;28.19;41.21;100604.06;4420093;32;20049;-68
2021/08/21 05:05:41;;;;;;;3.50;1.15;;;;;;;28.41;41.36;100617.94;4423459;32;20887;-68
2021/08/21 05:08:07;;;;;;;3.60;1.00;;;;;;;28.45;41.34;100613.37;4422134;32;20068;-68
2021/08/21 05:10:33;;;;;;;2.85;1.58;;;;;;;28.13;42.24;100609.97;4422132;32;20815;-68
2021/08/21 05:12:59;;;;;;;3.75;1.15;;;;;;;28.22;42.48;100614.50;4423011;32;20100;-68
2021/08/21 05:15:25;;;;;;;3.40;1.02;;;;;;;28.14;42.65;100614.44;4423488;32;20152;-68
2021/08/21 05:17:52;;;;;;;4.47;1.20;;;;;;;28.18;42.86;100626.41;4423800;32;20053;-68
2021/08/21 05:20:25;;;;;;;2.60;1.02;;;;;;;27.99;43.17;100625.84;4422111;32;20056;-68
2021/08/21 05:23:08;;;;;;;2.25;1.20;;;;;;;27.56;44.36;100628.41;4422311;32;20508;-68
2021/08/21 05:25:40;;;;;;;3.42;1.20;;;;;;;27.78;44.52;100627.91;4421504;32;20073;-67
2021/08/21 05:28:06;;;;;;;3.42;1.25;;;;;;;27.78;44.84;100633.69;4420876;32;20453;-67
2021/08/21 05:30:33;;;;;;;5.70;1.30;;;;;;;27.47;45.36;100628.88;4422886;32;20068;-68
2021/08/21 05:32:59;;;;;;;4.47;1.37;;;;;;;27.62;46.04;100631.16;4421950;32;20057;-67
2021/08/21 05:35:25;;;;;;;3.25;1.02;;;;;;;27.46;46.02;100624.44;4423156;32;20132;-67
2021/08/21 05:37:51;;;;;;;3.08;1.17;;;;;;;27.67;46.05;100628.16;4424250;32;20050;-67
2021/08/21 05:40:17;;;;;;;2.42;1.30;;;;;;;27.56;45.81;100630.53;4424199;32;20100;-67
2021/08/21 05:42:44;;;;;;;3.78;1.50;;;;;;;27.30;46.92;100624.81;4425005;32;20083;-67
2021/08/21 05:45:10;;;;;;;7.50;1.55;;;;;;;27.21;47.41;100623.87;4423023;32;20029;-67
2021/08/21 05:47:36;;;;;;;2.87;1.40;;;;;;;27.20;47.28;100615.78;4424563;32;20092;-67
2021/08/21 05:50:02;;;;;;;4.37;1.55;;;;;;;27.29;47.37;100621.13;4423314;32;20065;-67
2021/08/21 05:52:28;;;;;;;3.25;1.52;;;;;;;27.37;47.16;100624.13;4421904;32;20126;-67
2021/08/21 05:54:54;;;;;;;3.50;1.48;;;;;;;27.15;47.52;100625.31;4424399;32;20105;-67
2021/08/21 05:57:20;;;;;;;6.30;1.52;;;;;;;27.07;47.65;100631.03;4426311;32;20084;-67
2021/08/21 05:59:46;;;;;;;3.80;1.62;;;;;;;27.18;47.24;100625.00;4419919;32;20117;-67
2021/08/21 06:02:12;;;;;;;4.75;1.40;;;;;;;27.12;47.82;100632.25;4423156;32;20038;-67
2021/08/21 06:04:38;;;;;;;4.85;1.55;;;;;;;27.06;47.80;100631.56;4424179;32;20121;-67
2021/08/21 06:07:04;;;;;;;3.22;1.50;;;;;;;27.23;47.54;100629.09;4423127;32;20925;-67
2021/08/21 06:09:29;;;;;;;4.25;1.30;;;;;;;27.26;47.49;100630.91;4422894;32;20046;-67
2021/08/21 06:11:55;;;;;;;5.55;1.60;;;;;;;27.26;47.45;100628.03;4426483;32;20073;-67
2021/08/21 06:14:21;;;;;;;2.83;1.58;;;;;;;27.07;47.96;100636.00;4426028;32;20338;-67
2021/08/21 06:16:47;;;;;;;5.20;2.00;;;;;;;27.01;48.21;100641.13;4419120;32;20128;-67
2021/08/21 06:19:13;;;;;;;5.20;2.05;;;;;;;27.04;48.10;100642.91;4421430;32;20137;-67
2021/08/21 06:21:38;;;;;;;3.35;1.65;;;;;;;27.29;47.77;100644.25;4422551;32;20061;-67
2021/08/21 06:24:04;;;;;;;3.08;1.77;;;;;;;27.29;47.55;100638.47;4420533;32;20132;-67
2021/08/21 06:26:30;;;;;;;4.50;1.65;;;;;;;27.27;47.40;100643.25;4424905;32;20077;-67
2021/08/21 06:28:56;;;;;;;3.67;1.65;;;;;;;27.23;47.44;100643.56;4420737;32;20069;-67
2021/08/21 06:31:22;;;;;;;6.28;1.98;;;;;;;27.22;47.54;100651.44;4425522;32;20521;-67
2021/08/21 06:33:47;;;;;;;4.37;2.03;;;;;;;27.40;46.96;100652.69;4421066;32;20025;-67
2021/08/21 06:36:13;;;;;;;3.95;2.22;;;;;;;27.49;46.57;100643.56;4421315;32;20462;-67
2021/08/21 06:38:38;;;;;;;6.37;2.10;;;;;;;27.42;46.54;100643.47;4423237;32;20354;-67
2021/08/21 06:41:04;;;;;;;4.40;1.90;;;;;;;27.24;47.03;100642.25;4422751;32;20097;-67
2021/08/21 06:43:30;;;;;;;5.37;1.90;;;;;;;27.53;46.54;100644.00;4425968;32;20029;-67
2021/08/21 06:45:55;;;;;;;4.35;1.80;;;;;;;27.57;46.61;100644.41;4423316;32;20089;-67
2021/08/21 06:48:21;;;;;;;3.45;1.98;;;;;;;27.60;46.43;100649.06;4423255;32;20087;-67
2021/08/21 06:50:47;;;;;;;5.60;1.90;;;;;;;27.60;46.44;100649.06;4427349;32;20046;-67
2021/08/21 06:53:15;;;;;;;5.78;1.87;;;;;;;27.42;47.01;100644.22;4422679;32;20961;-67
2021/08/21 06:55:41;;;;;;;2.80;1.98;;;;;;;27.24;47.24;100642.25;4424262;32;20069;-67
2021/08/21 06:58:07;;;;;;;6.03;2.10;;;;;;;27.39;47.51;100638.81;4421490;32;20091;-67
2021/08/21 07:00:34;;;;;;;6.50;2.15;;;;;;;27.67;46.94;100639.72;4421665;32;20137;-67
2021/08/21 07:02:59;;;;;;;5.18;1.80;;;;;;;27.76;47.05;100636.34;4424070;32;20056;-67
2021/08/21 07:05:25;;;;;;;4.70;2.30;;;;;;;27.67;47.33;100628.16;4424070;32;20101;-67
2021/08/21 07:07:51;;;;;;;4.75;2.40;;;;;;;27.59;47.17;100630.19;4424036;32;20045;-67
2021/08/21 07:10:16;;;;;;;4.47;1.98;;;;;;;27.74;46.44;100633.25;4420636;32;20108;-67
2021/08/21 07:12:42;;;;;;;8.05;2.20;;;;;;;27.90;46.05;100637.91;4421561;32;20028;-67
2021/08/21 07:15:09;;;;;;;5.05;2.53;;;;;;;27.86;46.20;100639.59;4423207;32;20485;-67
2021/08/21 07:17:35;;;;;;;8.80;2.58;;;;;;;28.03;46.08;100628.38;4423207;32;20395;-67
2021/08/21 07:20:01;;;;;;;6.20;2.30;;;;;;;27.94;46.52;100634.66;4421519;32;20042;-67
2021/08/21 07:22:26;;;;;;;4.12;2.10;;;;;;;28.02;46.65;100633.41;4422189;32;20021;-67
2021/08/21 07:24:52;;;;;;;4.97;2.28;;;;;;;28.17;45.49;100633.56;4420671;32;20040;-67
2021/08/21 07:27:18;;;;;;;5.03;2.55;;;;;;;28.31;45.55;100637.13;4422661;32;20107;-67
2021/08/21 07:29:44;;;;;;;7.87;2.40;;;;;;;28.40;44.93;100639.53;4422268;32;20017;-67
2021/08/21 07:32:09;;;;;;;7.75;2.80;;;;;;;28.31;45.10;100640.03;4423656;32;20049;-67
2021/08/21 07:34:36;;;;;;;5.78;2.65;;;;;;;28.73;44.41;100636.59;4422628;32;20091;-67
2021/08/21 07:37:03;;;;;;;6.32;2.85;;;;;;;28.69;44.36;100638.28;4424013;32;20034;-67
2021/08/21 07:39:28;;;;;;;7.55;3.03;;;;;;;28.81;44.03;100637.41;4422265;32;20045;-67
2021/08/21 07:41:54;;;;;;;8.45;2.35;;;;;;;28.60;44.63;100638.78;4423174;32;20600;-67
2021/08/21 07:44:20;;;;;;;5.03;2.17;;;;;;;28.60;44.17;100630.09;4419516;32;20026;-67
2021/08/21 07:46:45;;;;;;;4.80;2.92;;;;;;;28.69;43.90;100632.50;4423609;32;20069;-67
2021/08/21 07:49:11;;;;;;;4.68;3.20;;;;;;;28.75;43.63;100647.59;4421412;32;20041;-67
2021/08/21 07:51:37;;;;;;;5.68;2.62;;;;;;;28.80;44.32;100652.44;4421151;32;20088;-67
2021/08/21 07:54:04;;;;;;;7.57;3.37;;;;;;;28.86;43.61;100650.19;4418621;32;20042;-67
2021/08/21 07:56:30;;;;;;;7.07;3.90;;;;;;;28.55;44.09;100654.19;4422841;32;20124;-67
2021/08/21 07:58:55;;;;;;;5.87;3.50;;;;;;;28.56;44.21;100652.84;4421795;32;20049;-67
2021/08/21 08:01:21;;;;;;;8.25;3.62;;;;;;;28.63;44.19;100655.78;4419093;32;20434;-67
2021/08/21 08:03:47;;;;;;;7.50;3.85;;;;;;;28.15;45.04;100661.50;4420852;32;20116;-67
2021/08/21 08:06:13;;;;;;;9.32;4.10;;;;;;;27.94;45.66;100649.91;4422030;32;20029;-67
2021/08/21 08:08:39;;;;;;;11.07;4.00;;;;;;;28.09;45.41;100644.28;4420924;32;20102;-67
2021/08/21 08:11:05;;;;;;;10.02;4.07;;;;;;;28.24;44.80;100629.16;4421365;32;20022;-67
2021/08/21 08:13:31;;;;;;;7.55;3.67;;;;;;;28.54;44.11;100627.37;4420518;32;20049;-67
2021/08/21 08:15:57;;;;;;;9.50;3.87;;;;;;;28.64;44.58;100630.50;4423560;32;20034;-67
2021/08/21 08:18:23;;;;;;;6.90;3.85;;;;;;;28.81;44.03;100611.31;4421395;32;20064;-67
2021/08/21 08:20:48;;;;;;;6.07;3.22;;;;;;;28.98;43.73;100614.53;4422315;32;20061;-67
2021/08/21 08:23:14;;;;;;;6.97;3.92;;;;;;;29.18;43.38;100630.34;4418731;32;20038;-68
2021/08/21 08:25:40;;;;;;;8.10;4.37;;;;;;;29.26;42.88;100634.03;4419664;32;20100;-68
2021/08/21 08:28:05;;;;;;;12.07;4.12;;;;;;;29.21;42.83;100655.28;4420215;32;20077;-68
2021/08/21 08:30:32;;;;;;;8.27;3.90;;;;;;;29.18;42.80;100661.44;4419826;32;20036;-68
2021/08/21 08:32:58;;;;;;;7.37;3.67;;;;;;;29.16;43.06;100653.31;4419204;32;20169;-68
2021/08/21 08:35:23;;;;;;;7.45;3.47;;;;;;;29.52;42.69;100662.00;4423165;32;20070;-68
2021/08/21 08:37:49;;;;;;;7.87;4.18;;;;;;;29.76;42.03;100652.84;4421050;32;20340;-67
2021/08/21 08:40:15;;;;;;;10.30;4.47;;;;;;;29.58;41.99;100656.81;4423142;32;20317;-67
2021/08/21 08:42:43;;;;;;;7.70;4.32;;;;;;;29.59;42.11;100656.25;4420463;32;20038;-67
2021/08/21 08:45:11;;;;;;;10.20;5.78;;;;;;;29.99;41.73;100657.37;4418642;32;20366;-67
2021/08/21 08:47:38;;;;;;;8.63;4.70;;;;;;;29.68;41.77;100652.03;4423148;32;20459;-67
2021/08/21 08:50:07;;;;;;;8.25;5.20;;;;;;;29.89;41.62;100655.59;4425584;32;20049;-67
2021/08/21 08:52:34;;;;;;;13.10;5.22;;;;;;;29.87;41.78;100656.19;4420329;32;20333;-67
2021/08/21 08:55:02;;;;;;;8.75;5.37;;;;;;;29.72;41.75;100661.13;4422349;32;20449;-68
2021/08/21 08:57:48;;;;;;;9.48;5.03;;;;;;;29.68;42.03;100647.03;4418440;32;20063;-68
2021/08/21 09:00:18;;;;;;;10.38;5.60;;;;;;;30.15;40.63;100646.56;4422925;32;20160;-68
2021/08/21 09:05:22;;;;;;;8.45;4.97;;;;;;;30.46;40.13;100642.34;3993125;32;15026110;-68
2021/08/21 09:10:26;;;;;;;12.68;5.72;;;;;;;31.29;39.42;100643.09;3979304;32;15023220;-68
2021/08/21 09:15:47;;;;;;;15.20;5.97;;;;;;;31.49;38.82;100638.38;3986122;32;15023027;-69
2021/08/21 09:28:45;;;;;;;9.32;4.65;;;;;;;32.13;36.71;100626.81;3983491;32;15022800;-68
2021/08/21 09:31:14;;;;;;;10.00;4.60;;;;;;;32.13;36.71;100626.81;4436424;32;20075;-68
2021/08/21 09:33:49;;;;;;;8.82;4.75;;;;;;;31.35;37.74;100634.94;4440651;32;20121;-68
2021/08/21 09:36:26;;;;;;;10.43;4.70;;;;;;;31.09;38.53;100617.94;4437274;32;20413;-68
2021/08/21 09:38:52;;;;;;;13.18;4.43;;;;;;;31.15;37.82;100632.25;4435368;32;20090;-68
2021/08/21 09:41:17;;;;;;;7.75;4.55;;;;;;;30.97;38.47;100642.94;4442009;32;20033;-68
2021/08/21 09:43:43;;;;;;;12.20;4.90;;;;;;;31.18;38.67;100633.97;4436961;32;20041;-68
2021/08/21 09:46:19;;;;;;;9.27;4.87;;;;;;;31.04;39.00;100642.16;4435474;32;20651;-68
2021/08/21 09:49:05;;;;;;;11.35;5.15;;;;;;;31.08;38.45;100635.97;4439147;32;20418;-68
2021/08/21 09:51:42;;;;;;;9.35;4.47;;;;;;;31.22;37.93;100640.16;4438946;32;20056;-68
2021/08/21 09:54:10;;;;;;;9.20;5.47;;;;;;;31.25;38.23;100636.87;4438628;32;20088;-68
2021/08/21 09:56:39;;;;;;;10.27;5.28;;;;;;;31.02;38.65;100636.16;4434207;32;20430;-68
2021/08/21 09:59:07;;;;;;;13.35;5.75;;;;;;;31.08;38.65;100621.41;4439037;32;20085;-68
2021/08/21 10:01:33;;;;;;;12.40;5.22;;;;;;;31.16;38.72;100628.75;4439257;32;20072;-68
2021/08/21 10:04:01;;;;;;;11.48;5.18;;;;;;;31.28;37.65;100618.28;4439324;32;20679;-67
2021/08/21 10:06:26;;;;;;;16.25;5.60;;;;;;;31.10;37.83;100621.62;4436219;32;20050;-67
2021/08/21 10:08:59;;;;;;;10.73;6.30;;;;;;;31.53;37.35;100621.31;4433321;32;20117;-67
2021/08/21 10:11:25;;;;;;;11.75;5.57;;;;;;;31.81;37.29;100627.56;4439027;32;20070;-67
2021/08/21 10:13:52;;;;;;;7.30;4.62;;;;;;;32.41;35.96;100626.44;4437468;32;20085;-67
2021/08/21 10:16:19;;;;;;;11.65;4.60;;;;;;;32.81;34.96;100632.88;4439207;32;20030;-67
2021/08/21 10:18:48;;;;;;;5.43;3.80;;;;;;;32.37;35.06;100626.84;4435877;32;20052;-69
2021/08/21 10:21:16;;;;;;;10.80;5.50;;;;;;;32.25;35.18;100624.97;4440736;32;20044;-69
2021/08/21 10:23:44;;;;;;;8.50;4.35;;;;;;;31.72;36.26;100625.25;4436033;32;20101;-68
2021/08/21 10:26:33;;;;;;;11.05;5.15;;;;;;;31.81;36.38;100633.41;4439109;32;20104;-67
2021/08/21 10:28:59;;;;;;;8.93;5.18;;;;;;;31.06;37.45;100632.84;4433251;32;20355;-67
2021/08/21 10:34:13;;;;;;;8.00;4.50;;;;;;;31.46;37.34;100625.78;4000801;31;15017238;-68
2021/08/21 10:42:28;;;;;;;9.02;4.30;;;;;;;32.41;35.54;100633.03;3984709;32;15023871;-68
2021/08/21 10:44:55;;;;;;;6.30;3.95;;;;;;;32.41;35.54;100633.03;4438361;32;20159;-68
2021/08/21 10:47:38;;;;;;;8.85;4.57;;;;;;;32.07;35.32;100629.16;4435825;32;20077;-68
2021/08/21 10:50:27;;;;;;;6.97;3.92;;;;;;;32.13;34.87;100623.91;4436294;32;20101;-68
2021/08/21 10:52:55;;;;;;;9.77;3.95;;;;;;;31.84;35.67;100640.19;4437823;32;20106;-69
2021/08/21 10:55:34;;;;;;;6.30;3.78;;;;;;;31.58;36.45;100626.91;4437816;32;20045;-68
2021/08/21 10:58:20;;;;;;;5.53;3.40;;;;;;;31.77;35.62;100632.22;4436892;32;20093;-68
2021/08/21 11:00:50;;;;;;;7.97;3.55;;;;;;;31.34;36.59;100629.69;4437207;32;20092;-68
2021/08/21 11:03:38;;;;;;;7.75;4.03;;;;;;;30.81;37.38;100632.72;4437621;32;20041;-68
2021/08/21 11:06:07;;;;;;;6.72;3.65;;;;;;;30.81;37.68;100638.53;4437071;32;20056;-68
2021/08/21 11:08:54;;;;;;;5.50;3.50;;;;;;;30.65;38.04;100634.81;4437878;32;20457;-68
2021/08/21 11:11:31;;;;;;;8.38;3.47;;;;;;;30.67;37.65;100623.41;4437434;32;20473;-68
2021/08/21 11:14:26;;;;;;;5.20;3.03;;;;;;;30.81;37.84;100626.91;4435508;32;20079;-67
2021/08/21 11:35:18;;;;;;;5.82;2.10;;;;;;;31.66;34.92;100613.06;3988549;32;15022657;-68
2021/08/21 11:37:46;;;;;;;5.18;2.40;;;;;;;31.66;34.92;100613.06;4432771;32;20129;-68
2021/08/21 11:40:15;;;;;;;4.40;2.55;;;;;;;31.70;34.95;100622.19;4437905;32;20030;-68
2021/08/21 11:42:48;;;;;;;2.80;2.12;;;;;;;31.68;34.79;100610.34;4438593;32;20125;-68
2021/08/21 11:45:14;;;;;;;4.40;2.15;;;;;;;31.71;34.90;100615.00;4437845;32;20034;-68
2021/08/21 11:47:40;;;;;;;4.75;1.80;;;;;;;31.74;34.85;100610.91;4434527;32;20102;-68
2021/08/21 11:53:01;;;;;;;4.00;1.80;;;;;;;31.98;36.37;100610.22;3981715;32;15022803;-67
2021/08/21 11:55:29;;;;;;;3.92;2.08;;;;;;;31.98;36.37;100610.22;4437947;32;20689;-67
2021/08/21 11:57:56;;;;;;;3.87;1.92;;;;;;;31.48;36.96;100607.75;4436508;32;20037;-67
2021/08/21 12:00:25;;;;;;;5.05;2.28;;;;;;;31.15;37.21;100612.69;4438503;32;20815;-67
2021/08/21 12:02:56;;;;;;;3.58;2.12;;;;;;;30.43;38.97;100612.34;4436557;32;20095;-67
2021/08/21 12:05:24;;;;;;;3.33;1.70;;;;;;;30.59;39.35;100604.44;4436754;32;20085;-69
2021/08/21 12:07:50;;;;;;;3.72;1.92;;;;;;;30.81;39.27;100604.41;4442439;32;20857;-69
2021/08/21 12:10:16;;;;;;;3.60;1.50;;;;;;;31.39;38.13;100603.31;4437640;32;20142;-68
2021/08/21 12:12:42;;;;;;;5.32;1.70;;;;;;;31.63;36.04;100607.69;4437450;32;20398;-68
2021/08/21 12:15:09;;;;;;;3.50;1.55;;;;;;;32.25;35.44;100608.28;4437305;32;20098;-68